Time;durP1;ratioP1;P1;durP2;ratioP2;P2;SDS_P1;SDS_P2;PMS_P1;PMS_P2;Temp;Humidity;BMP_temperature;BMP_pressure;BME280_temperature;BME280_humidity;BME280_pressure;Samples;Min_cycle;Max_cycle;Signal;HPM_P1;HPM_P2
2024/04/08 00:01:44;;;;;;;6.95;5.82;;;12.00;99.90;;;;;;4918169;29;20036;-76
2024/04/08 00:04:10;;;;;;;9.63;5.90;;;11.90;99.90;;;;;;4918292;29;20043;-76
2024/04/08 00:06:36;;;;;;;10.60;6.47;;;11.90;99.90;;;;;;4918135;29;20376;-76
2024/04/08 00:09:01;;;;;;;8.82;6.03;;;11.90;99.90;;;;;;4917830;29;20123;-76
2024/04/08 00:11:27;;;;;;;8.15;6.97;;;11.80;99.90;;;;;;4915965;29;20043;-76
2024/04/08 00:13:52;;;;;;;8.65;5.55;;;11.80;99.90;;;;;;4918104;29;20032;-76
2024/04/08 00:16:18;;;;;;;8.55;5.68;;;11.80;99.90;;;;;;4917150;29;20482;-76
2024/04/08 00:18:44;;;;;;;7.75;5.95;;;11.80;99.90;;;;;;4917759;29;20032;-76
2024/04/08 00:21:09;;;;;;;8.23;6.32;;;11.80;99.90;;;;;;4917780;29;20032;-76
2024/04/08 00:23:35;;;;;;;6.25;5.55;;;11.80;99.90;;;;;;4917770;29;20482;-76
2024/04/08 00:26:07;;;;;;;7.10;5.93;;;11.80;99.90;;;;;;4916664;29;20031;-76
2024/04/08 00:28:37;;;;;;;7.38;6.28;;;11.80;99.90;;;;;;4916998;29;20021;-76
2024/04/08 00:31:07;;;;;;;9.13;6.50;;;11.70;99.90;;;;;;4917569;29;20032;-76
2024/04/08 00:33:34;;;;;;;10.27;6.60;;;11.70;99.90;;;;;;4916290;29;20115;-76
2024/04/08 00:36:01;;;;;;;8.75;6.68;;;11.70;99.90;;;;;;4917429;29;20051;-76
2024/04/08 00:38:27;;;;;;;7.60;5.88;;;11.70;99.90;;;;;;4917864;29;20119;-76
2024/04/08 00:40:52;;;;;;;8.05;6.30;;;11.60;99.90;;;;;;4916373;29;20527;-76
2024/04/08 00:43:18;;;;;;;8.88;5.80;;;11.60;99.90;;;;;;4918093;29;20056;-76
2024/04/08 00:45:48;;;;;;;8.48;5.85;;;11.60;99.90;;;;;;4917177;29;20036;-75
2024/04/08 00:48:14;;;;;;;10.13;6.97;;;11.60;99.90;;;;;;4917611;29;20048;-76
2024/04/08 00:50:46;;;;;;;10.32;7.03;;;11.50;99.90;;;;;;4917027;29;20386;-76
2024/04/08 00:53:13;;;;;;;8.80;6.30;;;11.50;99.90;;;;;;4916234;29;20028;-76
2024/04/08 00:55:41;;;;;;;8.85;6.57;;;11.50;99.90;;;;;;4915593;29;20479;-76
2024/04/08 00:58:07;;;;;;;9.45;5.97;;;11.50;99.90;;;;;;4916117;29;20095;-76
2024/04/08 01:00:33;;;;;;;9.02;5.85;;;11.40;99.90;;;;;;4914865;29;20488;-76
2024/04/08 01:03:02;;;;;;;8.98;6.28;;;11.40;99.90;;;;;;4904809;29;20033;-75
2024/04/08 01:05:28;;;;;;;8.75;6.43;;;11.40;99.90;;;;;;4903716;29;20028;-75
2024/04/08 01:07:54;;;;;;;8.68;6.05;;;11.40;99.90;;;;;;4917010;29;20030;-75
2024/04/08 01:10:20;;;;;;;10.50;6.45;;;11.40;99.90;;;;;;4916191;29;20115;-75
2024/04/08 01:12:46;;;;;;;9.35;6.28;;;11.40;99.90;;;;;;4916810;29;20079;-76
2024/04/08 01:15:12;;;;;;;10.60;7.20;;;11.40;99.90;;;;;;4916562;29;20112;-75
2024/04/08 01:17:37;;;;;;;10.77;6.75;;;11.40;99.90;;;;;;4916923;29;20052;-75
2024/04/08 01:20:04;;;;;;;11.00;6.78;;;11.30;99.90;;;;;;4916796;29;20032;-75
2024/04/08 01:22:31;;;;;;;8.82;7.00;;;11.30;99.90;;;;;;4917446;29;20048;-75
2024/04/08 01:25:00;;;;;;;8.77;6.70;;;11.20;99.90;;;;;;4914859;29;20029;-76
2024/04/08 01:27:26;;;;;;;9.98;6.75;;;11.30;99.90;;;;;;4916741;29;20057;-74
2024/04/08 01:29:52;;;;;;;9.15;7.07;;;11.20;99.90;;;;;;4913061;29;20037;-75
2024/04/08 01:32:18;;;;;;;10.25;7.63;;;11.20;99.90;;;;;;4916588;29;20035;-74
2024/04/08 01:34:43;;;;;;;10.40;6.70;;;11.20;99.90;;;;;;4917081;29;20071;-75
2024/04/08 01:37:09;;;;;;;14.02;7.10;;;11.10;99.90;;;;;;4915238;29;20044;-76
2024/04/08 01:39:35;;;;;;;9.23;6.88;;;11.10;99.90;;;;;;4916554;29;20036;-75
2024/04/08 01:42:01;;;;;;;9.10;6.38;;;11.10;99.90;;;;;;4916226;29;20079;-75
2024/04/08 01:44:27;;;;;;;9.63;6.80;;;11.00;99.90;;;;;;4916449;29;20028;-75
2024/04/08 01:46:53;;;;;;;11.10;6.53;;;11.00;99.90;;;;;;4915906;29;20506;-75
2024/04/08 01:49:18;;;;;;;9.55;6.78;;;11.00;99.90;;;;;;4905197;29;20035;-75
2024/04/08 01:51:44;;;;;;;6.68;5.97;;;11.00;99.90;;;;;;4916019;29;20047;-74
2024/04/08 01:54:12;;;;;;;8.35;6.53;;;10.90;99.90;;;;;;4916513;29;20040;-75
2024/04/08 01:56:38;;;;;;;9.57;6.53;;;10.90;99.90;;;;;;4915891;29;20120;-75
2024/04/08 01:59:04;;;;;;;8.15;6.60;;;10.90;99.90;;;;;;4916032;29;20040;-74
2024/04/08 02:01:30;;;;;;;8.77;6.60;;;10.80;99.90;;;;;;4916238;29;20037;-75
2024/04/08 02:03:55;;;;;;;9.02;6.30;;;10.80;99.90;;;;;;4916353;29;20494;-75
2024/04/08 02:06:21;;;;;;;10.10;6.75;;;10.80;99.90;;;;;;4915099;29;20031;-75
2024/04/08 02:08:46;;;;;;;12.00;6.40;;;10.70;99.90;;;;;;4915987;29;20036;-75
2024/04/08 02:11:12;;;;;;;9.02;7.00;;;10.70;99.90;;;;;;4911274;29;20039;-75
2024/04/08 02:13:38;;;;;;;8.88;6.32;;;10.70;99.90;;;;;;4913399;29;20020;-75
2024/04/08 02:16:07;;;;;;;8.52;6.65;;;10.60;99.90;;;;;;4914762;29;20054;-74
2024/04/08 02:18:33;;;;;;;15.48;6.97;;;10.60;99.90;;;;;;4914847;29;20115;-75
2024/04/08 02:20:59;;;;;;;24.50;9.07;;;10.60;99.90;;;;;;4914820;29;20487;-74
2024/04/08 02:23:25;;;;;;;15.80;7.63;;;10.50;99.90;;;;;;4914833;29;20068;-75
2024/04/08 02:25:51;;;;;;;14.02;6.10;;;10.50;99.90;;;;;;4915169;29;20016;-75
2024/04/08 02:28:16;;;;;;;10.65;5.93;;;10.50;99.90;;;;;;4915091;29;20039;-75
2024/04/08 02:30:42;;;;;;;10.57;6.68;;;10.40;99.90;;;;;;4915836;29;20040;-73
2024/04/08 02:33:08;;;;;;;8.73;6.28;;;10.40;99.90;;;;;;4915244;29;20028;-75
2024/04/08 02:35:35;;;;;;;6.05;5.32;;;10.40;99.90;;;;;;4915751;29;20031;-75
2024/04/08 02:38:03;;;;;;;8.25;6.03;;;10.40;99.90;;;;;;4915230;29;20115;-74
2024/04/08 02:40:29;;;;;;;8.82;6.20;;;10.40;99.90;;;;;;4916177;29;20027;-76
2024/04/08 02:42:55;;;;;;;8.05;5.45;;;10.30;99.90;;;;;;4915239;29;20130;-76
2024/04/08 02:45:20;;;;;;;8.05;5.70;;;10.30;99.90;;;;;;4914608;29;20028;-76
2024/04/08 02:47:46;;;;;;;6.88;5.35;;;10.30;99.90;;;;;;4914188;29;20427;-75
2024/04/08 02:50:12;;;;;;;8.88;5.88;;;10.30;99.90;;;;;;4914006;29;20044;-76
2024/04/08 02:52:37;;;;;;;8.38;5.85;;;10.20;99.90;;;;;;4915906;29;20104;-76
2024/04/08 02:55:03;;;;;;;8.40;6.68;;;10.20;99.90;;;;;;4915180;29;20028;-76
2024/04/08 02:57:29;;;;;;;10.18;6.53;;;10.20;99.90;;;;;;4915326;29;20056;-76
2024/04/08 02:59:54;;;;;;;10.50;6.70;;;10.20;99.90;;;;;;4914745;29;20040;-76
2024/04/08 03:02:20;;;;;;;13.85;6.28;;;10.20;99.90;;;;;;4914243;29;20028;-74
2024/04/08 03:04:46;;;;;;;12.82;6.18;;;10.20;99.90;;;;;;4913541;29;20036;-77
2024/04/08 03:07:11;;;;;;;8.38;5.82;;;10.20;99.90;;;;;;4915748;29;20032;-76
2024/04/08 03:09:37;;;;;;;11.55;5.85;;;10.20;99.90;;;;;;4915347;29;20040;-76
2024/04/08 03:12:03;;;;;;;8.90;5.53;;;10.30;99.90;;;;;;4913701;29;20032;-76
2024/04/08 03:14:28;;;;;;;11.65;6.47;;;10.20;99.90;;;;;;4915218;29;20029;-75
2024/04/08 03:16:54;;;;;;;9.65;6.57;;;10.20;99.90;;;;;;4915303;29;20390;-76
2024/04/08 03:19:20;;;;;;;10.35;6.07;;;10.20;99.90;;;;;;4913539;29;20021;-76
2024/04/08 03:21:46;;;;;;;7.82;5.57;;;10.20;99.90;;;;;;4914153;29;20032;-75
2024/04/08 03:24:11;;;;;;;7.75;4.90;;;10.20;99.90;;;;;;4916606;29;20088;-75
2024/04/08 03:26:37;;;;;;;7.35;4.85;;;10.10;99.90;;;;;;4918815;29;20462;-76
2024/04/08 03:29:02;;;;;;;4.70;4.28;;;10.10;99.90;;;;;;4918297;29;20455;-75
2024/04/08 03:31:28;;;;;;;6.82;5.00;;;10.00;99.90;;;;;;4919462;29;20024;-75
2024/04/08 03:33:54;;;;;;;7.55;5.53;;;10.00;99.90;;;;;;4918673;29;20028;-75
2024/04/08 03:36:20;;;;;;;9.43;5.10;;;9.90;99.90;;;;;;4918927;29;20052;-75
2024/04/08 03:38:45;;;;;;;7.55;5.00;;;9.90;99.90;;;;;;4917273;29;20036;-75
2024/04/08 03:41:11;;;;;;;8.27;5.68;;;9.90;99.90;;;;;;4918572;29;20036;-75
2024/04/08 03:43:37;;;;;;;8.00;5.50;;;9.90;99.90;;;;;;4917850;29;20101;-75
2024/04/08 03:46:02;;;;;;;7.25;5.78;;;9.90;99.90;;;;;;4917199;29;20044;-75
2024/04/08 03:48:29;;;;;;;11.05;5.88;;;9.90;99.90;;;;;;4918475;29;20035;-75
2024/04/08 03:50:55;;;;;;;7.47;5.20;;;9.90;99.90;;;;;;4917232;29;20028;-75
2024/04/08 03:53:21;;;;;;;8.52;5.72;;;9.90;99.90;;;;;;4918049;29;20470;-75
2024/04/08 03:55:47;;;;;;;9.32;5.93;;;9.90;99.90;;;;;;4917005;29;20533;-75
2024/04/08 03:58:12;;;;;;;6.10;5.50;;;10.00;99.90;;;;;;4917629;29;20076;-75
2024/04/08 04:00:38;;;;;;;8.60;5.55;;;10.00;99.90;;;;;;4917168;29;20480;-75
2024/04/08 04:03:04;;;;;;;9.73;5.75;;;10.00;99.90;;;;;;4912391;29;20036;-74
2024/04/08 04:05:29;;;;;;;7.03;5.43;;;10.00;99.90;;;;;;4915625;29;20180;-75
2024/04/08 04:07:56;;;;;;;8.75;5.97;;;9.90;99.90;;;;;;4915547;29;20155;-75
2024/04/08 04:10:22;;;;;;;9.23;5.55;;;9.90;99.90;;;;;;4911601;29;20031;-76
2024/04/08 04:12:48;;;;;;;8.38;5.40;;;9.90;99.90;;;;;;4916202;29;20036;-75
2024/04/08 04:15:13;;;;;;;8.80;5.50;;;9.90;99.90;;;;;;4918379;29;20088;-75
2024/04/08 04:17:39;;;;;;;8.35;6.07;;;9.90;99.90;;;;;;4913002;29;20451;-75
2024/04/08 04:20:09;;;;;;;5.70;5.07;;;9.90;99.90;;;;;;4909799;29;20040;-76
2024/04/08 04:22:35;;;;;;;7.20;5.20;;;9.90;99.90;;;;;;4915403;29;20435;-76
2024/04/08 04:25:01;;;;;;;8.82;4.85;;;9.90;99.90;;;;;;4917982;29;20498;-76
2024/04/08 04:27:27;;;;;;;9.63;5.80;;;9.90;99.90;;;;;;4917775;29;20044;-76
2024/04/08 04:29:52;;;;;;;9.50;5.45;;;10.00;99.90;;;;;;4917660;29;20032;-76
2024/04/08 04:32:18;;;;;;;7.68;5.30;;;10.00;99.90;;;;;;4917569;29;20034;-76
2024/04/08 04:34:44;;;;;;;6.65;5.15;;;10.10;99.90;;;;;;4910768;29;20031;-74
2024/04/08 04:37:10;;;;;;;9.10;5.30;;;10.20;99.90;;;;;;4916337;29;20406;-75
2024/04/08 04:39:36;;;;;;;7.97;5.47;;;10.30;99.90;;;;;;4917429;29;20025;-76
2024/04/08 04:42:02;;;;;;;6.05;5.45;;;10.30;99.90;;;;;;4915707;29;20066;-76
2024/04/08 04:44:28;;;;;;;8.63;5.60;;;10.40;99.90;;;;;;4915906;29;20363;-76
2024/04/08 04:46:54;;;;;;;8.85;4.85;;;10.50;99.90;;;;;;4911208;29;20495;-76
2024/04/08 04:49:20;;;;;;;6.22;4.95;;;10.50;99.90;;;;;;4918048;29;20111;-76
2024/04/08 04:51:46;;;;;;;11.05;5.32;;;10.60;99.90;;;;;;4917425;29;20384;-75
2024/04/08 04:54:11;;;;;;;9.32;5.32;;;10.70;99.90;;;;;;4916489;29;20044;-76
2024/04/08 04:56:37;;;;;;;11.27;5.07;;;10.80;99.90;;;;;;4909529;29;20067;-74
2024/04/08 04:59:03;;;;;;;7.95;5.78;;;10.90;99.90;;;;;;4907603;29;20020;-74
2024/04/08 05:01:28;;;;;;;14.73;5.38;;;11.00;99.90;;;;;;4916022;29;20020;-75
2024/04/08 05:03:54;;;;;;;8.95;5.35;;;11.20;99.90;;;;;;4916908;29;20087;-76
2024/04/08 05:06:19;;;;;;;7.63;5.05;;;11.40;99.90;;;;;;4912192;29;20066;-74
2024/04/08 05:08:45;;;;;;;9.02;4.93;;;11.50;99.90;;;;;;4908895;29;20029;-75
2024/04/08 05:11:11;;;;;;;6.00;5.05;;;11.70;99.90;;;;;;4915216;29;20031;-75
2024/04/08 05:13:37;;;;;;;6.93;5.72;;;11.80;99.90;;;;;;4917353;29;20028;-76
2024/04/08 05:16:03;;;;;;;9.70;5.10;;;11.90;99.90;;;;;;4915176;29;20119;-76
2024/04/08 05:18:30;;;;;;;7.65;5.43;;;12.00;99.90;;;;;;4915189;29;20032;-76
2024/04/08 05:20:59;;;;;;;6.88;5.22;;;12.10;99.90;;;;;;4915338;29;20040;-75
2024/04/08 05:23:26;;;;;;;8.52;5.53;;;12.20;99.90;;;;;;4898746;29;20439;-75
2024/04/08 05:25:53;;;;;;;9.32;5.57;;;12.30;99.90;;;;;;4914190;29;20028;-76
2024/04/08 05:28:20;;;;;;;9.73;5.75;;;12.30;99.90;;;;;;4913801;29;20028;-75
2024/04/08 05:30:46;;;;;;;7.38;5.78;;;12.40;99.90;;;;;;4914649;29;20387;-75
2024/04/08 05:33:12;;;;;;;8.30;4.85;;;12.40;99.90;;;;;;4910039;29;20032;-76
2024/04/08 05:35:40;;;;;;;6.97;5.65;;;12.60;99.90;;;;;;4910664;29;20025;-75
2024/04/08 05:38:09;;;;;;;11.27;5.35;;;12.60;99.90;;;;;;4906975;29;20107;-74
2024/04/08 05:40:35;;;;;;;7.70;5.38;;;12.70;99.90;;;;;;4911962;29;20063;-76
2024/04/08 05:43:01;;;;;;;9.85;5.70;;;12.80;99.90;;;;;;4915157;29;20056;-76
2024/04/08 05:45:27;;;;;;;9.25;5.70;;;12.90;99.90;;;;;;4910758;29;20029;-74
2024/04/08 05:47:55;;;;;;;8.80;5.35;;;13.10;99.90;;;;;;4909467;29;20103;-76
2024/04/08 05:50:21;;;;;;;9.90;5.35;;;13.20;99.90;;;;;;4914107;29;20075;-75
2024/04/08 05:54:08;;;;;;;7.57;5.50;;;13.30;99.90;;;;;;5465458;25;20346;-76
2024/04/08 05:56:34;;;;;;;7.80;5.80;;;13.40;99.90;;;;;;5435086;25;20076;-76
2024/04/08 05:58:59;;;;;;;8.60;5.70;;;13.60;99.90;;;;;;5432950;26;20317;-76
2024/04/08 06:01:25;;;;;;;12.52;5.90;;;13.70;99.90;;;;;;5463021;26;20009;-76
2024/04/08 06:03:51;;;;;;;9.00;5.80;;;13.70;99.90;;;;;;5419625;25;20000;-75
2024/04/08 06:06:17;;;;;;;9.23;5.05;;;13.80;99.90;;;;;;5412928;26;20015;-75
2024/04/08 06:08:43;;;;;;;7.95;5.57;;;13.90;99.90;;;;;;5425921;26;20353;-76
2024/04/08 06:11:09;;;;;;;7.53;5.28;;;13.90;99.90;;;;;;5405618;26;20003;-75
2024/04/08 06:13:35;;;;;;;8.88;5.70;;;14.00;99.90;;;;;;5437303;26;20000;-76
2024/04/08 06:16:02;;;;;;;8.65;5.38;;;14.00;99.90;;;;;;5429308;26;20014;-76
2024/04/08 06:18:27;;;;;;;6.43;4.72;;;14.10;99.90;;;;;;5417680;26;20464;-75
2024/04/08 06:20:57;;;;;;;8.30;5.57;;;14.10;99.90;;;;;;5399574;26;20000;-76
2024/04/08 06:23:23;;;;;;;5.20;4.53;;;14.30;99.90;;;;;;5397729;26;20023;-76
2024/04/08 06:26:02;;;;;;;7.65;6.03;;;14.50;99.90;;;;;;5425403;26;19996;-76
2024/04/08 06:28:29;;;;;;;7.93;4.80;;;14.70;99.90;;;;;;5397881;26;19992;-76
2024/04/08 06:30:55;;;;;;;6.35;5.20;;;14.90;99.90;;;;;;5366443;26;20111;-76
2024/04/08 06:33:22;;;;;;;5.50;4.30;;;15.10;99.90;;;;;;5368960;26;20041;-76
2024/04/08 06:35:47;;;;;;;11.40;5.13;;;15.40;99.90;;;;;;5378371;26;20004;-76
2024/04/08 06:38:13;;;;;;;7.13;4.60;;;15.80;99.90;;;;;;5395622;26;20015;-77
2024/04/08 06:40:40;;;;;;;8.35;4.43;;;16.10;99.90;;;;;;5396514;26;20007;-77
2024/04/08 06:43:06;;;;;;;5.85;3.47;;;16.40;99.90;;;;;;5397451;26;20454;-76
2024/04/08 06:45:31;;;;;;;6.00;3.60;;;16.70;99.90;;;;;;5395044;26;20085;-77
2024/04/08 06:47:57;;;;;;;9.02;3.30;;;17.00;99.90;;;;;;5396135;26;20016;-77
2024/04/08 06:50:23;;;;;;;5.18;3.40;;;17.30;99.90;;;;;;5407731;26;20008;-77
2024/04/08 06:52:48;;;;;;;6.35;3.33;;;17.60;99.90;;;;;;5397992;26;20083;-77
2024/04/08 06:55:16;;;;;;;3.75;2.78;;;17.80;99.90;;;;;;5441581;26;19996;-77
2024/04/08 06:57:42;;;;;;;4.18;3.25;;;18.10;97.80;;;;;;5410235;26;20075;-78
2024/04/08 07:00:09;;;;;;;6.90;3.08;;;18.40;96.40;;;;;;5418716;26;20021;-76
2024/04/08 07:02:36;;;;;;;5.95;2.50;;;18.60;93.30;;;;;;5442466;26;20006;-76
2024/04/08 07:05:02;;;;;;;4.80;3.05;;;18.80;91.10;;;;;;5431261;26;19999;-77
2024/04/08 07:07:27;;;;;;;5.13;3.00;;;19.00;89.50;;;;;;5402097;26;20014;-77
2024/04/08 07:09:53;;;;;;;5.05;2.53;;;19.20;86.70;;;;;;5399666;26;20004;-77
2024/04/08 07:12:19;;;;;;;4.35;2.90;;;19.30;83.50;;;;;;5394367;26;20333;-77
2024/04/08 07:14:45;;;;;;;2.85;2.35;;;19.40;80.70;;;;;;5397643;26;20008;-77
2024/04/08 07:17:10;;;;;;;5.30;2.60;;;19.60;79.70;;;;;;5406641;26;20080;-77
2024/04/08 07:19:37;;;;;;;2.53;2.10;;;19.70;77.80;;;;;;5427230;26;20343;-77
2024/04/08 07:22:03;;;;;;;3.30;2.38;;;19.80;75.70;;;;;;5427939;26;20050;-77
2024/04/08 07:24:28;;;;;;;5.10;2.22;;;20.00;76.10;;;;;;5383051;26;20052;-77
2024/04/08 07:26:54;;;;;;;4.75;2.60;;;20.10;75.30;;;;;;5394326;26;20003;-77
2024/04/08 07:29:20;;;;;;;4.00;2.20;;;20.20;74.10;;;;;;5383321;26;20012;-77
2024/04/08 07:31:45;;;;;;;5.47;2.78;;;20.30;72.80;;;;;;5404841;26;20345;-77
2024/04/08 07:34:11;;;;;;;3.75;2.45;;;20.40;72.10;;;;;;5419975;26;20443;-77
2024/04/08 07:36:37;;;;;;;3.42;2.30;;;20.50;71.30;;;;;;5398129;26;20008;-77
2024/04/08 07:39:03;;;;;;;5.03;2.38;;;20.70;71.40;;;;;;5418893;26;20015;-77
2024/04/08 07:41:29;;;;;;;5.43;2.40;;;20.80;70.00;;;;;;5387311;26;20055;-78
2024/04/08 07:43:54;;;;;;;3.55;2.40;;;21.00;70.00;;;;;;5390542;26;20000;-77
2024/04/08 07:46:20;;;;;;;3.60;2.45;;;21.20;69.10;;;;;;5394229;26;20004;-78
2024/04/08 07:48:46;;;;;;;3.53;2.05;;;21.30;68.70;;;;;;5405429;26;20014;-77
2024/04/08 07:51:11;;;;;;;2.75;2.22;;;21.40;68.10;;;;;;5406923;26;20011;-78
2024/04/08 07:53:37;;;;;;;3.33;1.90;;;21.60;67.00;;;;;;5395173;26;20004;-78
2024/04/08 07:56:03;;;;;;;2.90;1.98;;;21.60;66.30;;;;;;5416369;26;19996;-78
2024/04/08 07:58:30;;;;;;;3.50;2.00;;;21.70;66.10;;;;;;5421837;26;20040;-77
2024/04/08 08:00:59;;;;;;;4.00;1.83;;;21.90;66.90;;;;;;5392599;26;20004;-78
2024/04/08 08:03:28;;;;;;;4.25;1.73;;;22.00;65.10;;;;;;5388898;26;20019;-78
2024/04/08 08:05:55;;;;;;;4.10;2.17;;;22.20;64.00;;;;;;5386666;26;20018;-78
2024/04/08 08:08:20;;;;;;;2.00;1.67;;;22.30;64.10;;;;;;5387524;26;20008;-78
2024/04/08 08:10:46;;;;;;;3.30;1.70;;;22.50;63.40;;;;;;5391942;26;20005;-78
2024/04/08 08:13:12;;;;;;;6.45;1.92;;;22.50;62.10;;;;;;5402985;26;20010;-78
2024/04/08 08:15:37;;;;;;;3.08;1.80;;;22.50;61.20;;;;;;5396410;26;20013;-79
2024/04/08 08:18:03;;;;;;;2.50;1.70;;;22.60;60.70;;;;;;5403761;26;20526;-78
2024/04/08 08:20:30;;;;;;;13.35;2.28;;;22.70;59.90;;;;;;5422224;26;20086;-77
2024/04/08 08:22:58;;;;;;;3.35;1.60;;;22.90;59.80;;;;;;5395550;26;20012;-78
2024/04/08 08:25:24;;;;;;;4.43;1.88;;;22.90;59.10;;;;;;5392822;26;19999;-77
2024/04/08 08:27:51;;;;;;;1.58;1.48;;;23.10;59.30;;;;;;5367190;26;20012;-77
2024/04/08 08:30:16;;;;;;;4.32;2.25;;;23.10;58.40;;;;;;5380591;26;20023;-79
2024/04/08 08:32:43;;;;;;;4.80;2.38;;;23.10;57.70;;;;;;5366593;26;20454;-78
2024/04/08 08:35:08;;;;;;;3.92;2.20;;;23.20;58.10;;;;;;5373247;26;20446;-79
2024/04/08 08:37:34;;;;;;;3.38;2.55;;;23.20;58.10;;;;;;5355817;26;20012;-79
2024/04/08 08:39:59;;;;;;;7.40;3.42;;;23.20;57.80;;;;;;5362612;26;20662;-79
2024/04/08 08:42:29;;;;;;;3.58;2.63;;;23.20;57.60;;;;;;5384022;26;20005;-79
2024/04/08 08:44:57;;;;;;;2.03;1.83;;;23.20;57.10;;;;;;5361552;26;20074;-79
2024/04/08 08:47:24;;;;;;;2.90;2.00;;;23.20;56.80;;;;;;5363672;26;20318;-79
2024/04/08 08:49:53;;;;;;;3.05;2.05;;;23.10;56.80;;;;;;5359709;26;20085;-79
2024/04/08 08:52:24;;;;;;;3.17;1.63;;;23.10;56.50;;;;;;5366920;26;20015;-79
2024/04/08 08:54:53;;;;;;;2.55;1.52;;;23.20;57.00;;;;;;5356649;26;20005;-78
2024/04/08 08:57:19;;;;;;;5.78;1.80;;;23.30;57.00;;;;;;5355671;26;20016;-79
2024/04/08 08:59:50;;;;;;;12.48;8.88;;;23.40;57.00;;;;;;5356081;26;20005;-79
2024/04/08 09:02:17;;;;;;;14.63;8.88;;;23.50;56.20;;;;;;5351698;26;20085;-79
2024/04/08 09:04:43;;;;;;;15.65;9.45;;;23.60;56.60;;;;;;5352001;26;20001;-79
2024/04/08 09:07:09;;;;;;;14.85;9.73;;;23.60;56.00;;;;;;5360409;26;20016;-79
2024/04/08 09:09:35;;;;;;;8.20;6.55;;;23.60;55.70;;;;;;5356397;26;20036;-79
2024/04/08 09:12:01;;;;;;;5.50;2.92;;;23.80;55.60;;;;;;5383096;26;20004;-79
2024/04/08 09:14:30;;;;;;;3.88;2.00;;;23.80;54.70;;;;;;5358004;26;20005;-78
2024/04/08 09:17:10;;;;;;;5.07;2.55;;;24.00;54.20;;;;;;5366761;26;20015;-79
2024/04/08 09:19:36;;;;;;;2.42;1.90;;;24.00;53.80;;;;;;5377082;26;20421;-79
2024/04/08 09:22:03;;;;;;;6.43;3.55;;;24.20;55.00;;;;;;5389434;26;20334;-79
2024/04/08 09:24:30;;;;;;;9.18;5.22;;;24.30;54.40;;;;;;5366524;26;20000;-79
2024/04/08 09:26:56;;;;;;;4.80;2.80;;;24.40;53.60;;;;;;5367475;26;20109;-78
2024/04/08 09:29:22;;;;;;;10.20;4.18;;;24.50;53.80;;;;;;5362270;26;20016;-79
2024/04/08 09:31:48;;;;;;;4.10;1.70;;;24.50;53.20;;;;;;5360472;26;20004;-79
2024/04/08 09:34:14;;;;;;;11.48;5.35;;;24.70;53.30;;;;;;5361459;26;20290;-78
2024/04/08 09:36:40;;;;;;;6.25;2.00;;;24.80;53.80;;;;;;5358936;26;19997;-78
2024/04/08 09:39:09;;;;;;;5.20;2.67;;;24.80;52.20;;;;;;5369113;26;20008;-79
2024/04/08 09:41:36;;;;;;;11.05;3.97;;;24.80;52.60;;;;;;5377332;26;20043;-78
2024/04/08 09:44:03;;;;;;;2.67;1.90;;;24.90;53.20;;;;;;5384062;26;20065;-79
2024/04/08 09:46:29;;;;;;;2.47;1.92;;;25.00;52.60;;;;;;5441708;26;20003;-79
2024/04/08 09:48:54;;;;;;;4.95;2.92;;;25.10;51.80;;;;;;5413362;26;20015;-79
2024/04/08 09:51:21;;;;;;;2.15;1.95;;;25.00;50.30;;;;;;5362493;26;20005;-79
2024/04/08 09:53:47;;;;;;;4.90;1.92;;;25.20;51.60;;;;;;5397643;26;20007;-79
2024/04/08 09:56:17;;;;;;;3.22;1.60;;;25.30;50.20;;;;;;5412000;26;20086;-79
2024/04/08 09:58:55;;;;;;;2.53;2.00;;;25.40;50.30;;;;;;5379035;26;20005;-79
2024/04/08 10:01:22;;;;;;;4.30;1.50;;;25.50;50.50;;;;;;5406095;26;20023;-79
2024/04/08 10:03:51;;;;;;;5.10;2.47;;;25.70;50.70;;;;;;5413188;26;20007;-79
2024/04/08 10:06:21;;;;;;;1.88;1.42;;;25.70;49.50;;;;;;5414046;26;20019;-79
2024/04/08 10:08:47;;;;;;;4.70;2.15;;;25.70;48.70;;;;;;5414270;26;20341;-79
2024/04/08 10:11:14;;;;;;;4.50;2.20;;;25.80;48.60;;;;;;5419676;26;20017;-80
2024/04/08 10:13:49;;;;;;;4.72;2.35;;;25.60;48.10;;;;;;5414155;26;20014;-79
2024/04/08 10:16:16;;;;;;;7.13;3.17;;;25.50;48.30;;;;;;5404565;26;20012;-79
2024/04/08 10:18:52;;;;;;;5.53;2.58;;;25.50;49.30;;;;;;5423014;26;20061;-79
2024/04/08 10:21:19;;;;;;;3.00;2.22;;;25.60;49.70;;;;;;5402406;26;20080;-79
2024/04/08 10:23:45;;;;;;;4.35;2.63;;;25.60;49.10;;;;;;5390037;26;20040;-79
2024/04/08 10:26:12;;;;;;;7.43;3.50;;;25.50;49.00;;;;;;5378485;26;20342;-78
2024/04/08 10:28:42;;;;;;;5.93;1.83;;;25.60;49.30;;;;;;5423369;26;20482;-79
2024/04/08 10:31:08;;;;;;;4.07;2.08;;;25.60;49.60;;;;;;5396744;26;19999;-79
2024/04/08 10:33:34;;;;;;;4.07;1.70;;;25.70;49.20;;;;;;5391999;26;20314;-80
2024/04/08 10:36:01;;;;;;;5.40;2.45;;;25.80;49.60;;;;;;5366224;26;20417;-78
2024/04/08 10:38:27;;;;;;;7.63;2.72;;;25.80;48.50;;;;;;5376253;26;20015;-78
2024/04/08 10:40:54;;;;;;;3.83;1.98;;;25.90;48.60;;;;;;5404510;26;20011;-78
2024/04/08 10:43:22;;;;;;;4.15;2.08;;;26.00;48.20;;;;;;5390946;26;20365;-77
2024/04/08 10:45:52;;;;;;;4.05;1.90;;;26.10;48.50;;;;;;5377026;26;20005;-78
2024/04/08 10:48:18;;;;;;;4.97;2.25;;;26.10;47.80;;;;;;5415647;26;20420;-77
2024/04/08 10:50:53;;;;;;;3.30;2.00;;;26.10;47.00;;;;;;5440808;26;20023;-77
2024/04/08 10:53:18;;;;;;;3.45;2.53;;;26.20;46.70;;;;;;5428821;26;20460;-78
2024/04/08 10:55:44;;;;;;;4.72;1.85;;;26.20;46.60;;;;;;5416273;26;20042;-78
2024/04/08 10:58:13;;;;;;;8.32;3.10;;;26.20;47.70;;;;;;5391011;26;20004;-78
2024/04/08 11:00:39;;;;;;;3.42;2.03;;;26.20;47.50;;;;;;5404634;26;20004;-78
2024/04/08 11:03:05;;;;;;;3.95;1.80;;;26.30;47.10;;;;;;5409410;26;20021;-78
2024/04/08 11:05:31;;;;;;;2.33;1.85;;;26.30;47.40;;;;;;5412862;26;20015;-77
2024/04/08 11:08:00;;;;;;;1.88;1.58;;;26.40;46.90;;;;;;5417098;26;20000;-79
2024/04/08 11:10:28;;;;;;;2.72;2.08;;;26.40;46.60;;;;;;5413460;26;20006;-79
2024/04/08 11:12:55;;;;;;;3.03;2.17;;;26.50;47.10;;;;;;5428534;26;19995;-79
2024/04/08 11:15:23;;;;;;;5.18;1.95;;;26.40;46.50;;;;;;5422637;26;20017;-79
2024/04/08 11:17:58;;;;;;;2.15;1.60;;;26.50;47.10;;;;;;5424441;26;20018;-79
2024/04/08 11:20:26;;;;;;;5.75;1.85;;;26.50;46.00;;;;;;5411321;26;20008;-80
2024/04/08 11:22:53;;;;;;;8.77;1.90;;;26.60;47.10;;;;;;5431819;26;20007;-80
2024/04/08 11:25:18;;;;;;;4.30;2.10;;;26.60;46.70;;;;;;5410511;26;19995;-77
2024/04/08 11:27:45;;;;;;;4.38;2.40;;;26.70;46.70;;;;;;5392893;26;20010;-78
2024/04/08 11:30:14;;;;;;;5.18;2.47;;;26.70;45.70;;;;;;5421322;26;20016;-77
2024/04/08 11:32:40;;;;;;;4.57;2.22;;;26.60;44.80;;;;;;5398675;26;20082;-78
2024/04/08 11:35:05;;;;;;;4.13;2.65;;;26.70;46.30;;;;;;5406410;26;20006;-78
2024/04/08 11:37:31;;;;;;;8.20;2.20;;;26.70;45.20;;;;;;5419020;26;20007;-77
2024/04/08 11:39:57;;;;;;;2.22;1.70;;;26.70;46.60;;;;;;5433051;26;20021;-78
2024/04/08 11:42:23;;;;;;;3.85;1.63;;;26.80;44.60;;;;;;5414767;26;20011;-77
2024/04/08 11:44:57;;;;;;;3.90;2.65;;;26.90;45.20;;;;;;5414830;26;20456;-77
2024/04/08 11:47:23;;;;;;;3.78;2.55;;;26.80;44.30;;;;;;5418056;26;20345;-77
2024/04/08 11:49:49;;;;;;;2.08;1.88;;;26.90;44.80;;;;;;5423103;26;19995;-79
2024/04/08 11:52:14;;;;;;;4.45;2.15;;;26.90;44.00;;;;;;5417326;26;19996;-77
2024/04/08 11:54:40;;;;;;;5.55;1.92;;;26.90;43.70;;;;;;5413254;26;20076;-78
2024/04/08 11:57:08;;;;;;;3.13;2.20;;;26.80;42.90;;;;;;5413978;26;20004;-78
2024/04/08 11:59:34;;;;;;;4.70;2.50;;;26.90;43.90;;;;;;5420054;26;20019;-78
2024/04/08 12:01:59;;;;;;;7.28;2.47;;;27.00;44.90;;;;;;5412052;26;20082;-77
2024/04/08 12:04:25;;;;;;;4.50;1.73;;;27.00;44.00;;;;;;5404623;26;20077;-77
2024/04/08 12:06:51;;;;;;;4.35;2.03;;;27.10;43.80;;;;;;5406513;26;19999;-77
2024/04/08 12:09:16;;;;;;;6.03;2.80;;;27.10;42.60;;;;;;5411808;26;20004;-79
2024/04/08 12:11:42;;;;;;;4.90;2.45;;;27.00;42.90;;;;;;5390463;26;20008;-79
2024/04/08 12:14:08;;;;;;;3.78;1.85;;;26.90;43.20;;;;;;5395665;26;20402;-78
2024/04/08 12:16:34;;;;;;;4.20;2.00;;;27.00;42.90;;;;;;5416711;26;20077;-80
2024/04/08 12:19:00;;;;;;;7.63;3.22;;;27.00;43.40;;;;;;5427108;26;20456;-79
2024/04/08 12:21:26;;;;;;;8.38;3.67;;;27.00;43.20;;;;;;5417747;26;20014;-78
2024/04/08 12:23:54;;;;;;;4.07;2.42;;;26.90;43.60;;;;;;5415959;26;20003;-78
2024/04/08 12:26:20;;;;;;;6.93;2.85;;;26.90;43.60;;;;;;5406563;26;20430;-78
2024/04/08 12:28:46;;;;;;;10.10;4.30;;;27.10;44.40;;;;;;5430627;26;20011;-77
2024/04/08 12:31:12;;;;;;;4.68;3.25;;;26.90;43.20;;;;;;5402365;26;20004;-79
2024/04/08 12:33:38;;;;;;;4.80;1.80;;;26.90;43.40;;;;;;5422060;26;20035;-79
2024/04/08 12:36:09;;;;;;;7.63;4.53;;;26.70;42.70;;;;;;5415678;26;20077;-78
2024/04/08 12:38:35;;;;;;;3.85;2.28;;;26.60;43.20;;;;;;5401109;26;20016;-78
2024/04/08 12:41:01;;;;;;;4.00;2.30;;;26.40;43.80;;;;;;5399798;26;20087;-77
2024/04/08 12:43:27;;;;;;;8.10;3.45;;;26.30;44.30;;;;;;5430107;26;20456;-77